Dixonville, Tennessee
Current Conditions -  °F | °C
As of 11:50 AM on Thursday 29 Jan 2015 (Local Time) from KNQA Reporting Station
Broken Clouds Broken Clouds  
Wind Chill: 64°   Ceiling: 25000
Heat Index: 64°   Visibility: 10mi
Dew Point: 46°   Wind: 15mph
Humidity: 52%   Direction: 300°WNW
Pressure: 30.1"   Gusts: NA
Location:  35.3343°N, 89.9316°W
Report Text: KNQA 291750Z 30013KT 10SM FEW150 BKN250 18/08 A3010
Loading
Personal Weather Stations






























Interactive Weather Map New forecast layout! Learn more

10-Day Weather Forecast

Advertisements
Track Severe Weather on mobile